createdAt,value
2022-11-09T00:04:28.904Z,96781.41
2022-11-09T00:09:49.776Z,96780.19
2022-11-09T00:15:10.395Z,96777.09
2022-11-09T00:20:30.970Z,96776.16
2022-11-09T00:25:51.706Z,96785.69
2022-11-09T00:31:14.504Z,96781.06
2022-11-09T00:36:35.308Z,96788.94
2022-11-09T00:41:56.145Z,96780.69
2022-11-09T00:47:17.060Z,96777.31
2022-11-09T00:52:38.456Z,96781.59
2022-11-09T00:57:59.174Z,96775.31
2022-11-09T01:03:21.063Z,96770.66
2022-11-09T01:08:41.856Z,96779.19
2022-11-09T01:14:02.348Z,96777.88
2022-11-09T01:19:23.189Z,96768.94
2022-11-09T01:24:46.779Z,96761.91
2022-11-09T01:30:07.756Z,96763.06
2022-11-09T01:35:28.822Z,96759.16
2022-11-09T01:40:49.957Z,96756.91
2022-11-09T01:46:24.221Z,96756.19
2022-11-09T01:51:50.794Z,96751.72
2022-11-09T01:57:15.020Z,96749.59
2022-11-09T02:02:36.495Z,96761.91
2022-11-09T02:07:58.479Z,96746.50
2022-11-09T02:13:21.805Z,96745.91
2022-11-09T02:18:51.621Z,96759.03
2022-11-09T02:24:12.728Z,96762.38
2022-11-09T02:29:35.717Z,96761.25
2022-11-09T02:34:57.010Z,96759.41
2022-11-09T02:40:28.998Z,96771.00
2022-11-09T02:45:50.060Z,96774.94
2022-11-09T02:51:10.862Z,96784.66
2022-11-09T02:56:31.603Z,96774.59
2022-11-09T03:01:53.591Z,96771.66
2022-11-09T03:07:14.824Z,96770.31
2022-11-09T03:12:36.302Z,96768.88
2022-11-09T03:18:00.987Z,96766.50
2022-11-09T03:23:22.096Z,96759.66
2022-11-09T03:28:43.260Z,96760.59
2022-11-09T03:34:04.006Z,96761.94
2022-11-09T03:39:24.981Z,96737.34
2022-11-09T03:44:45.428Z,96752.56
2022-11-09T03:50:06.418Z,96765.78
2022-11-09T03:55:27.386Z,96772.47
2022-11-09T04:00:48.249Z,96763.81
2022-11-09T04:06:09.041Z,96762.66
2022-11-09T04:11:29.967Z,96755.69
2022-11-09T04:16:50.792Z,96739.88
2022-11-09T04:22:11.579Z,96742.28
2022-11-09T04:27:32.499Z,96719.28
2022-11-09T04:32:53.595Z,96730.31
2022-11-09T04:38:14.905Z,96732.19
2022-11-09T04:43:35.654Z,96747.28
2022-11-09T04:48:56.467Z,96773.28
2022-11-09T04:54:17.331Z,96797.59
2022-11-09T04:59:38.132Z,96790.88
2022-11-09T05:04:58.844Z,96776.41
2022-11-09T05:10:19.856Z,96791.44
2022-11-09T05:15:40.812Z,96785.00
2022-11-09T05:21:02.106Z,96782.81
2022-11-09T05:26:22.891Z,96783.94
2022-11-09T05:31:51.841Z,96779.69
2022-11-09T05:37:13.541Z,96780.19
2022-11-09T05:42:34.704Z,96791.53
2022-11-09T05:47:55.287Z,96789.03
2022-11-09T05:53:16.070Z,96772.06
2022-11-09T05:58:38.787Z,96767.72
2022-11-09T06:03:59.529Z,96771.47
2022-11-09T06:09:20.509Z,96786.03
2022-11-09T06:14:41.076Z,96784.28
2022-11-09T06:20:01.926Z,96793.78
2022-11-09T06:25:23.222Z,96794.31
2022-11-09T06:30:44.130Z,96789.59
2022-11-09T06:36:05.470Z,96782.16
2022-11-09T06:41:26.377Z,96776.41
2022-11-09T06:46:47.190Z,96775.06
2022-11-09T06:52:07.965Z,96781.47
2022-11-09T06:57:31.855Z,96782.81
2022-11-09T07:02:52.782Z,96804.72
2022-11-09T07:08:13.805Z,96805.13
2022-11-09T07:13:34.559Z,96814.88
2022-11-09T07:18:55.126Z,96816.31
2022-11-09T07:24:15.838Z,96800.81
2022-11-09T07:29:36.859Z,96802.47
2022-11-09T07:34:57.598Z,96800.28
2022-11-09T07:40:18.772Z,96804.28
2022-11-09T07:45:39.584Z,96810.59
2022-11-09T07:51:01.041Z,96813.91
2022-11-09T07:56:21.601Z,96815.56
2022-11-09T08:01:42.445Z,96827.63
2022-11-09T08:07:03.403Z,96835.69
2022-11-09T08:12:24.065Z,96835.91
2022-11-09T08:17:45.021Z,96853.09
2022-11-09T08:23:06.165Z,96839.63
2022-11-09T08:28:26.920Z,96818.13
2022-11-09T08:33:47.903Z,96812.84
2022-11-09T08:39:08.741Z,96840.97
2022-11-09T08:44:29.328Z,96848.44
2022-11-09T08:49:50.251Z,96850.78
2022-11-09T08:55:11.147Z,96862.38
2022-11-09T09:00:32.277Z,96855.53
2022-11-09T09:05:52.911Z,96855.66
2022-11-09T09:11:13.891Z,96866.94
2022-11-09T09:16:34.437Z,96873.25
2022-11-09T09:21:55.570Z,96880.25
2022-11-09T09:27:16.376Z,96870.16
2022-11-09T09:32:36.834Z,96876.56
2022-11-09T09:37:58.403Z,96881.16
2022-11-09T09:43:45.983Z,96890.41
2022-11-09T09:49:10.875Z,96893.25
2022-11-09T09:54:35.731Z,96897.06
2022-11-09T09:59:59.331Z,96896.88
2022-11-09T10:05:20.857Z,96897.41
2022-11-09T10:10:47.883Z,96900.59
2022-11-09T10:16:27.538Z,96880.22
2022-11-09T10:21:52.615Z,96876.81
2022-11-09T10:27:25.984Z,96875.53
2022-11-09T10:32:55.149Z,96866.91
2022-11-09T10:38:21.334Z,96859.09
2022-11-09T10:44:01.177Z,96870.84
2022-11-09T10:49:40.939Z,96882.94
2022-11-09T10:55:27.657Z,96872.75
2022-11-09T11:01:13.611Z,96854.66
2022-11-09T11:06:53.144Z,96845.63
2022-11-09T11:12:32.720Z,96836.78
2022-11-09T11:18:23.671Z,96825.81
2022-11-09T11:24:02.902Z,96821.16
2022-11-09T11:30:00.913Z,96817.31
2022-11-09T11:35:55.372Z,96808.44
2022-11-09T11:41:45.988Z,96790.28
2022-11-09T11:47:28.434Z,96777.34
2022-11-09T11:53:26.101Z,96793.00
2022-11-09T11:59:08.227Z,96784.63
2022-11-09T12:05:14.393Z,96780.13
2022-11-09T12:10:53.790Z,96758.84
2022-11-09T12:16:44.887Z,96754.16
2022-11-09T12:22:24.237Z,96768.88
2022-11-09T12:28:14.695Z,96776.97
2022-11-09T12:34:07.637Z,96756.50
2022-11-09T12:39:48.872Z,96757.88
2022-11-09T12:45:31.092Z,96754.47
2022-11-09T12:51:10.708Z,96753.63
2022-11-09T12:56:54.489Z,96753.34
2022-11-09T13:02:38.326Z,96756.09
2022-11-09T13:08:20.117Z,96751.69
2022-11-09T13:14:19.208Z,96754.19
2022-11-09T13:19:58.362Z,96759.53
2022-11-09T13:25:48.296Z,96758.03
2022-11-09T13:31:46.818Z,96766.13
2022-11-09T13:37:34.983Z,96766.00
2022-11-09T13:43:16.686Z,96763.66
2022-11-09T13:48:56.151Z,96755.81
2022-11-09T13:54:36.735Z,96741.41
2022-11-09T14:00:25.375Z,96742.38
2022-11-09T14:06:04.503Z,96740.88
2022-11-09T14:11:54.373Z,96731.69
2022-11-09T14:17:41.143Z,96737.03
2022-11-09T14:23:21.936Z,96732.09
2022-11-09T14:29:11.005Z,96728.81
2022-11-09T14:34:50.481Z,96720.19
2022-11-09T14:40:31.058Z,96726.88
2022-11-09T14:46:16.074Z,96730.31
2022-11-09T14:51:55.527Z,96728.25
2022-11-09T14:57:36.586Z,96739.16
2022-11-09T15:03:27.264Z,96738.63
2022-11-09T15:09:08.709Z,96741.22
2022-11-09T15:14:53.694Z,96748.22
2022-11-09T15:20:34.126Z,96742.44
2022-11-09T15:26:43.668Z,96731.38
2022-11-09T15:32:24.520Z,96730.78
2022-11-09T15:38:04.173Z,96742.16
2022-11-09T15:43:44.379Z,96740.75
2022-11-09T15:49:26.396Z,96733.16
2022-11-09T15:55:06.075Z,96746.22
2022-11-09T16:00:46.039Z,96742.09
2022-11-09T16:06:26.946Z,96758.22
2022-11-09T16:12:06.508Z,96765.56
2022-11-09T16:17:46.170Z,96777.75
2022-11-09T16:23:28.942Z,96783.91
2022-11-09T16:29:08.472Z,96796.59
2022-11-09T16:35:08.472Z,96808.53
2022-11-09T16:40:47.345Z,96807.06
2022-11-09T16:46:28.604Z,96811.06
2022-11-09T16:52:09.452Z,96814.16
2022-11-09T16:57:48.931Z,96811.59
2022-11-09T17:03:28.411Z,96803.97
2022-11-09T17:09:07.836Z,96824.00
2022-11-09T17:14:48.485Z,96825.66
2022-11-09T17:20:28.049Z,96820.13
2022-11-09T17:26:08.000Z,96827.31
2022-11-09T17:31:47.671Z,96830.97
2022-11-09T17:37:27.421Z,96837.88
2022-11-09T17:43:06.999Z,96834.81
2022-11-09T17:48:47.551Z,96844.06
2022-11-09T17:54:35.507Z,96861.25
2022-11-09T18:00:16.926Z,96872.19
2022-11-09T18:05:56.576Z,96880.94
2022-11-09T18:11:36.225Z,96885.91
2022-11-09T18:17:15.616Z,96884.97
2022-11-09T18:22:55.367Z,96886.72
2022-11-09T18:28:35.403Z,96884.91
2022-11-09T18:34:15.105Z,96889.19
2022-11-09T18:39:54.559Z,96898.53
2022-11-09T18:45:34.951Z,96890.16
2022-11-09T18:51:13.944Z,96900.03
2022-11-09T18:56:53.419Z,96911.66
2022-11-09T19:02:34.662Z,96908.94
2022-11-09T19:08:16.434Z,96913.44
2022-11-09T19:13:56.226Z,96918.06
2022-11-09T19:19:35.715Z,96922.56
2022-11-09T19:25:15.122Z,96922.59
2022-11-09T19:30:54.699Z,96923.38
2022-11-09T19:36:33.946Z,96929.88
2022-11-09T19:42:14.127Z,96937.34
2022-11-09T19:47:53.884Z,96939.72
2022-11-09T19:53:36.966Z,96950.56
2022-11-09T19:59:20.809Z,96952.22
2022-11-09T20:05:00.410Z,96952.44
2022-11-09T20:10:39.792Z,96953.41
2022-11-09T20:16:19.070Z,96954.38
2022-11-09T20:21:58.582Z,96971.97
2022-11-09T20:27:38.222Z,96969.50
2022-11-09T20:33:17.740Z,96974.84
2022-11-09T20:38:57.239Z,96979.19
2022-11-09T20:44:36.601Z,96972.69
2022-11-09T20:50:16.010Z,96972.34
2022-11-09T20:55:55.720Z,96973.28
2022-11-09T21:01:35.130Z,96976.13
2022-11-09T21:07:14.766Z,96981.44
2022-11-09T21:12:54.537Z,96988.31
2022-11-09T21:18:33.815Z,96989.00
2022-11-09T21:24:32.135Z,96990.66
2022-11-09T21:30:12.008Z,96990.19
2022-11-09T21:35:51.588Z,96986.66
2022-11-09T21:41:39.957Z,96985.38
2022-11-09T21:47:19.310Z,96981.44
2022-11-09T21:52:58.404Z,96976.97
2022-11-09T21:58:37.547Z,96985.22
2022-11-09T22:04:17.011Z,96984.75
2022-11-09T22:10:10.085Z,96985.13
2022-11-09T22:16:09.338Z,96984.06
2022-11-09T22:21:48.804Z,96993.03
2022-11-09T22:27:30.023Z,96986.31
2022-11-09T22:33:09.301Z,96991.16
2022-11-09T22:38:48.858Z,96995.28
2022-11-09T22:44:28.133Z,97000.50
2022-11-09T22:50:07.861Z,97009.56
2022-11-09T22:55:51.839Z,97014.28
2022-11-09T23:01:31.239Z,97011.69
2022-11-09T23:07:10.544Z,97018.31
2022-11-09T23:12:50.493Z,97021.75
2022-11-09T23:18:49.034Z,97034.38
2022-11-09T23:24:47.300Z,97038.38
2022-11-09T23:30:26.881Z,97043.25
2022-11-09T23:36:06.856Z,97044.41
2022-11-09T23:41:46.392Z,97054.81
2022-11-09T23:47:25.538Z,97051.00
2022-11-09T23:53:04.773Z,97056.69
2022-11-09T23:58:46.827Z,97058.59
